Overview Statistics Trail Chart Weather Telemetry Raw packets
 

This is the latest recevied weather packets stored in our database for station/object KB4MOX. If no packets are shown the sender has not sent any weather packets the latest 10 day(s).

<< 99 100 101 102 103 104 105 >>
Time Temp. Humidity Pressure Rain* Wind** Luminosity Snow
1787874861 21.67° C 95% 1014.8 hPa 0 mm - 1 W/m² -
1787874560 21.67° C 95% 1015 hPa 0 mm - 2 W/m² -
1787874254 21.67° C 95% 1015 hPa 0 mm - 2 W/m² -
1787873950 21.67° C 95% 1014.8 hPa 0 mm - 2 W/m² -
1787873649 21.67° C 95% 1015.2 hPa 0 mm - 3 W/m² -
1787873344 21.67° C 95% 1015.1 hPa 0 mm - 4 W/m² -
1787873042 21.67° C 95% 1015.2 hPa 0 mm - 5 W/m² -
1787872738 21.67° C 95% 1015.5 hPa 0 mm - 5 W/m² -
1787872434 21.67° C 95% 1015.3 hPa 0 mm - 7 W/m² -
1787872134 21.67° C 95% 1015.4 hPa 0 mm - 10 W/m² -
1787871833 21.67° C 94% 1015.6 hPa 0 mm - 13 W/m² -
1787871528 21.67° C 94% 1015.4 hPa 0 mm - 17 W/m² -
1787871224 21.67° C 94% 1015.6 hPa 0 mm - 20 W/m² -
1787870918 21.67° C 93% 1015.6 hPa 0 mm - 13 W/m² -
1787870613 21.67° C 93% 1015.7 hPa 1.27 mm - 8 W/m² -
1787870308 21.67° C 92% 1015.8 hPa 1.27 mm - 9 W/m² -
1787870004 21.67° C 91% 1015.9 hPa 3.05 mm - 11 W/m² -
1787869703 22.22° C 90% 1016.1 hPa 3.05 mm - 5 W/m² -
1787869402 22.78° C 89% 1016.2 hPa 1.78 mm - 3 W/m² -
1787869097 23.89° C 86% 1016 hPa 3.05 mm - 4 W/m² -
1787868795 25.56° C 79% 1016 hPa 1.27 mm - 10 W/m² -
1787868495 26.67° C 75% 1015.8 hPa 0 mm - 3 W/m² -
1787868194 26.67° C 75% 1015.5 hPa 0 mm - 3 W/m² -
1787867889 27.22° C 75% 1015.4 hPa 0 mm - 7 W/m² -
1787867585 27.78° C 73% 1015.2 hPa 0 mm - 13 W/m² -

* Rain latest hour (hover to see other rain measurements)
** Current wind speed in m/s (hover to see current wind gust speed)